RKTN/TAE METAR and TAF weather

Enter ICAO airport designator
Station Type Date Time Source
RKTN METAR 2019/10/23 02:00 UTC NOAA

RKTN 230200Z 11001KT 9999 FEW030 BKN160 19/12 Q1018


Station Type Date Time Source
RKTN Decoded METAR 2019/10/23 02:00 UTC NOAA

Taegu Ab, Korea, South (RKTN) 35-54N 128-39E 37M
Oct 22, 2019 - 10:00 PM EDT / 2019.10.23 0200 UTC
Wind: from the ESE (110 degrees) at 1 MPH (1 KT):0
Visibility: greater than 7 mile(s):0
Sky conditions: mostly cloudy
Temperature: 66 F (19 C)
Dew Point: 53 F (12 C)
Relative Humidity: 63%
Pressure (altimeter): 30.06 in. Hg (1018 hPa)
ob: RKTN 230200Z 11001KT 9999 FEW030 BKN160 19/12 Q1018
cycle: 2

Station Type Date Time Source
RKTN TAF 2019/10/22 18:06 UTC NOAA

TAF RKTN 221700Z 2218/2324 13006KT CAVOK TX22/2307Z TN14/2321Z
BECMG 2306/2307 9999 SCT030 BKN100
BECMG 2315/2316 4800 -RA BR BKN030 OVC100

Example: see airport list